createdAt,value
2022-08-30T00:01:57.745Z,49.34
2022-08-30T00:07:24.229Z,49.05
2022-08-30T00:12:17.085Z,49.42
2022-08-30T00:17:17.016Z,49.48
2022-08-30T00:22:16.992Z,49.48
2022-08-30T00:27:16.896Z,49.63
2022-08-30T00:32:16.894Z,49.68
2022-08-30T00:37:16.759Z,50.07
2022-08-30T00:42:16.684Z,50.37
2022-08-30T00:47:16.678Z,50.37
2022-08-30T00:52:16.571Z,50.52
2022-08-30T00:57:16.503Z,50.76
2022-08-30T01:02:16.497Z,50.79
2022-08-30T01:07:16.347Z,50.82
2022-08-30T01:12:16.289Z,50.94
2022-08-30T01:17:16.197Z,51.13
2022-08-30T01:22:16.150Z,51.32
2022-08-30T01:27:16.062Z,51.79
2022-08-30T01:32:18.714Z,51.66
2022-08-30T01:37:15.996Z,52.27
2022-08-30T01:42:15.878Z,52.17
2022-08-30T01:47:15.810Z,52.14
2022-08-30T01:52:15.768Z,52.33
2022-08-30T01:57:15.670Z,52.24
2022-08-30T02:02:15.612Z,52.47
2022-08-30T02:07:17.063Z,52.14
2022-08-30T02:12:15.510Z,52.50
2022-08-30T02:17:15.406Z,52.43
2022-08-30T02:22:15.346Z,52.53
2022-08-30T02:27:15.248Z,52.60
2022-08-30T02:32:15.205Z,52.63
2022-08-30T02:37:15.220Z,52.56
2022-08-30T02:42:15.072Z,52.63
2022-08-30T02:47:15.012Z,52.99
2022-08-30T02:52:14.942Z,53.33
2022-08-30T02:57:19.974Z,53.36
2022-08-30T03:02:15.803Z,53.29
2022-08-30T03:07:14.746Z,53.67
2022-08-30T03:12:14.667Z,53.94
2022-08-30T03:17:15.753Z,54.25
2022-08-30T03:22:14.542Z,54.50
2022-08-30T03:27:14.481Z,54.78
2022-08-30T03:32:14.470Z,55.36
2022-08-30T03:37:14.365Z,55.17
2022-08-30T03:42:14.399Z,55.50
2022-08-30T03:47:14.261Z,55.72
2022-08-30T03:52:14.184Z,55.87
2022-08-30T03:57:20.142Z,55.76
2022-08-30T04:02:15.083Z,56.09
2022-08-30T04:07:13.956Z,55.94
2022-08-30T04:12:13.909Z,56.24
2022-08-30T04:17:24.334Z,56.35
2022-08-30T04:22:16.762Z,56.32
2022-08-30T04:27:16.644Z,56.54
2022-08-30T04:32:16.605Z,56.32
2022-08-30T04:37:16.505Z,56.28
2022-08-30T04:42:16.445Z,56.06
2022-08-30T04:47:16.374Z,55.94
2022-08-30T04:52:16.476Z,55.61
2022-08-30T04:57:16.377Z,55.61
2022-08-30T05:02:16.292Z,55.39
2022-08-30T05:07:16.149Z,55.28
2022-08-30T05:12:16.305Z,55.21
2022-08-30T05:17:16.058Z,55.07
2022-08-30T05:22:15.948Z,54.71
2022-08-30T05:27:15.837Z,54.71
2022-08-30T05:32:15.790Z,54.78
2022-08-30T05:37:15.739Z,54.60
2022-08-30T05:42:16.955Z,54.43
2022-08-30T05:47:15.580Z,54.36
2022-08-30T05:52:15.544Z,53.97
2022-08-30T05:57:15.453Z,53.63
2022-08-30T06:02:15.483Z,53.16
2022-08-30T06:07:16.482Z,52.86
2022-08-30T06:12:15.239Z,52.47
2022-08-30T06:17:15.233Z,52.63
2022-08-30T06:22:15.093Z,52.43
2022-08-30T06:27:15.066Z,52.24
2022-08-30T06:32:15.106Z,51.98
2022-08-30T06:37:29.762Z,51.79
2022-08-30T06:42:15.947Z,51.28
2022-08-30T06:47:14.792Z,50.04
2022-08-30T06:52:14.764Z,48.18
2022-08-30T06:57:14.643Z,46.25
2022-08-30T07:02:14.728Z,44.22
2022-08-30T07:07:14.563Z,41.85
2022-08-30T07:12:14.486Z,39.84
2022-08-30T07:17:14.425Z,38.15
2022-08-30T07:22:14.328Z,37.08
2022-08-30T07:27:14.265Z,36.56
2022-08-30T07:32:14.202Z,36.00
2022-08-30T07:37:14.531Z,35.55
2022-08-30T07:42:14.084Z,35.04
2022-08-30T07:47:13.986Z,34.78
2022-08-30T07:52:13.983Z,34.59
2022-08-30T07:57:16.030Z,34.84
2022-08-30T08:02:13.934Z,34.90
2022-08-30T08:07:13.813Z,34.87
2022-08-30T08:12:13.661Z,34.22
2022-08-30T08:17:13.613Z,33.54
2022-08-30T08:22:21.682Z,32.79
2022-08-30T08:27:14.536Z,31.99
2022-08-30T08:32:13.431Z,31.37
2022-08-30T08:37:13.332Z,30.45
2022-08-30T08:42:13.291Z,29.84
2022-08-30T08:47:13.709Z,28.96
2022-08-30T08:52:13.250Z,28.34
2022-08-30T08:57:15.992Z,27.91
2022-08-30T09:02:13.030Z,27.48
2022-08-30T09:07:12.965Z,26.66
2022-08-30T09:12:12.886Z,26.03
2022-08-30T09:17:12.828Z,25.39
2022-08-30T09:22:12.790Z,24.57
2022-08-30T09:27:12.677Z,24.03
2022-08-30T09:32:25.297Z,23.31
2022-08-30T09:37:13.582Z,22.78
2022-08-30T09:42:12.507Z,22.13
2022-08-30T09:47:12.452Z,21.61
2022-08-30T09:52:12.424Z,21.18
2022-08-30T09:57:12.965Z,20.82
2022-08-30T10:02:12.334Z,20.38
2022-08-30T10:07:12.993Z,19.98
2022-08-30T10:12:12.174Z,19.41
2022-08-30T10:22:13.040Z,18.85
2022-08-30T10:27:11.982Z,18.82
2022-08-30T10:32:11.930Z,18.58
2022-08-30T10:37:11.856Z,18.49
2022-08-30T10:42:11.829Z,18.37
2022-08-30T10:47:11.721Z,18.25
2022-08-30T10:52:11.682Z,18.23
2022-08-30T10:57:11.597Z,18.14
2022-08-30T11:02:11.522Z,18.23
2022-08-30T11:07:11.472Z,18.33
2022-08-30T11:12:11.414Z,18.36
2022-08-30T11:17:11.368Z,18.49
2022-08-30T11:22:11.301Z,18.53
2022-08-30T11:27:11.224Z,18.58
2022-08-30T11:32:12.006Z,18.67
2022-08-30T11:37:11.210Z,18.83
2022-08-30T11:42:11.052Z,18.88
2022-08-30T11:47:10.984Z,19.04
2022-08-30T11:52:28.292Z,19.18
2022-08-30T11:57:11.895Z,19.39
2022-08-30T12:02:10.848Z,19.46
2022-08-30T12:07:10.724Z,19.51
2022-08-30T12:12:10.717Z,19.77
2022-08-30T12:17:10.604Z,20.03
2022-08-30T12:22:10.661Z,20.32
2022-08-30T12:27:11.272Z,20.66
2022-08-30T12:32:10.501Z,21.16
2022-08-30T12:37:10.388Z,21.50
2022-08-30T12:42:10.320Z,21.77
2022-08-30T12:47:10.283Z,22.09
2022-08-30T12:52:10.203Z,22.46
2022-08-30T12:57:32.074Z,22.51
2022-08-30T13:02:20.326Z,22.56
2022-08-30T13:07:11.019Z,22.61
2022-08-30T13:12:09.917Z,22.66
2022-08-30T13:17:09.874Z,22.85
2022-08-30T13:22:09.965Z,23.13
2022-08-30T13:27:09.759Z,23.72
2022-08-30T13:32:09.697Z,24.12
2022-08-30T13:37:47.256Z,24.74
2022-08-30T13:52:20.380Z,26.26
2022-08-30T13:57:10.366Z,26.73
2022-08-30T14:02:11.438Z,27.19
2022-08-30T14:07:13.891Z,27.69
2022-08-30T14:12:10.157Z,28.10
2022-08-30T14:17:09.156Z,28.48
2022-08-30T14:22:09.058Z,28.86
2022-08-30T14:27:08.955Z,28.90
2022-08-30T14:32:08.929Z,29.14
2022-08-30T14:37:08.839Z,29.02
2022-08-30T14:42:09.549Z,29.08
2022-08-30T14:47:08.732Z,28.92
2022-08-30T14:52:08.640Z,28.94
2022-08-30T14:57:08.597Z,28.90
2022-08-30T15:02:08.526Z,28.94
2022-08-30T15:07:13.115Z,28.96
2022-08-30T15:12:09.426Z,29.16
2022-08-30T15:17:08.401Z,29.22
2022-08-30T15:22:08.305Z,29.43
2022-08-30T15:27:08.198Z,29.68
2022-08-30T15:32:08.160Z,29.63
2022-08-30T15:37:08.097Z,29.82
2022-08-30T15:42:08.030Z,29.99
2022-08-30T15:47:08.328Z,30.23
2022-08-30T15:52:10.103Z,30.32
2022-08-30T15:57:07.833Z,30.47
2022-08-30T16:02:07.820Z,30.56
2022-08-30T16:07:07.715Z,30.80
2022-08-30T16:12:07.676Z,30.76
2022-08-30T16:17:07.604Z,30.96
2022-08-30T16:22:07.605Z,31.07
2022-08-30T16:27:08.795Z,31.33
2022-08-30T16:32:07.399Z,31.61
2022-08-30T16:37:07.312Z,31.87
2022-08-30T16:42:07.273Z,32.11
2022-08-30T16:47:11.427Z,32.43
2022-08-30T16:52:08.150Z,32.76
2022-08-30T16:57:07.051Z,33.15
2022-08-30T17:02:07.065Z,33.54
2022-08-30T17:07:06.943Z,33.97
2022-08-30T17:12:07.891Z,34.28
2022-08-30T17:17:06.788Z,34.53
2022-08-30T17:22:08.695Z,34.93
2022-08-30T17:27:06.655Z,35.28
2022-08-30T17:32:06.611Z,35.43
2022-08-30T17:37:07.054Z,35.70
2022-08-30T17:42:06.457Z,35.88
2022-08-30T17:47:06.388Z,36.59
2022-08-30T17:52:06.347Z,36.69
2022-08-30T17:57:10.135Z,36.85
2022-08-30T18:02:06.232Z,37.40
2022-08-30T18:07:06.466Z,37.77
2022-08-30T18:12:06.050Z,38.35
2022-08-30T18:17:06.075Z,38.85
2022-08-30T18:22:05.989Z,39.36
2022-08-30T18:27:05.867Z,39.73
2022-08-30T18:32:05.788Z,40.26
2022-08-30T18:37:05.735Z,40.72
2022-08-30T18:42:06.775Z,41.04
2022-08-30T18:47:05.875Z,41.36
2022-08-30T18:52:05.544Z,41.28
2022-08-30T18:57:05.523Z,41.48
2022-08-30T19:02:05.538Z,41.69
2022-08-30T19:07:05.498Z,41.94
2022-08-30T19:12:09.434Z,42.10
2022-08-30T19:17:07.207Z,42.06
2022-08-30T19:22:05.127Z,41.89
2022-08-30T19:27:05.283Z,42.23
2022-08-30T19:32:05.027Z,42.10
2022-08-30T19:37:04.966Z,42.15
2022-08-30T19:42:04.885Z,42.53
2022-08-30T19:47:04.829Z,42.53
2022-08-30T19:52:04.764Z,42.66
2022-08-30T19:57:04.693Z,42.66
2022-08-30T20:02:04.722Z,42.57
2022-08-30T20:07:04.587Z,42.70
2022-08-30T20:12:04.495Z,42.78
2022-08-30T20:17:04.465Z,42.74
2022-08-30T20:22:08.099Z,42.96
2022-08-30T20:27:04.309Z,42.92
2022-08-30T20:32:04.351Z,42.70
2022-08-30T20:37:04.194Z,42.96
2022-08-30T20:42:04.102Z,43.22
2022-08-30T20:47:04.479Z,42.83
2022-08-30T20:52:04.837Z,42.96
2022-08-30T20:57:03.949Z,43.05
2022-08-30T21:02:03.858Z,42.74
2022-08-30T21:07:03.807Z,43.09
2022-08-30T21:12:03.761Z,43.09
2022-08-30T21:17:03.719Z,43.13
2022-08-30T21:22:03.556Z,42.70
2022-08-30T21:27:03.594Z,42.70
2022-08-30T21:32:03.450Z,42.61
2022-08-30T21:37:03.416Z,42.57
2022-08-30T21:42:03.365Z,42.40
2022-08-30T21:47:03.222Z,42.87
2022-08-30T21:52:03.201Z,42.78
2022-08-30T21:57:03.095Z,42.70
2022-08-30T22:02:03.073Z,42.70
2022-08-30T22:07:02.976Z,42.61
2022-08-30T22:12:02.987Z,42.23
2022-08-30T22:17:02.950Z,42.10
2022-08-30T22:22:02.732Z,41.94
2022-08-30T22:27:02.798Z,42.06
2022-08-30T22:32:02.734Z,41.94
2022-08-30T22:37:02.605Z,41.77
2022-08-30T22:42:02.677Z,41.69
2022-08-30T22:47:02.466Z,41.65
2022-08-30T22:52:02.358Z,41.48
2022-08-30T22:57:02.917Z,41.56
2022-08-30T23:02:02.477Z,41.77
2022-08-30T23:07:02.180Z,41.52
2022-08-30T23:12:02.394Z,41.69
2022-08-30T23:17:02.039Z,41.85
2022-08-30T23:22:02.004Z,41.98
2022-08-30T23:27:03.220Z,41.73
2022-08-30T23:32:01.885Z,41.77
2022-08-30T23:37:01.897Z,42.19
2022-08-30T23:42:01.789Z,42.23
2022-08-30T23:47:01.810Z,42.40
2022-08-30T23:52:01.645Z,42.53
2022-08-30T23:57:01.663Z,42.36
